Amberieu, France

17:06 CEST le 23 octobre 2014 (GMT +0200)
IRHNEALP66 | Change Station
CLOSE
Current Station
Stations météorologiques personnelles
Location: Saint Denis Les Bourg, RHNE-ALPES
Altitude: 771 ft
Stations météo à proximité

Alt. 771 ft 46.20 °N, 5.19 °E | Updated 1 minute ago

Clear
Ciel dégagé
54.7 ° F
Paraît 54.7 ° F
N
8.3
Vent Variable Vent de NNE
Gusts 10.8 mph

Aujourd'hui
Haut(e) -- | Bas -- ° F
--% Risque de précip.
Hier
Haut(e) -- | Bas -- ° F
Precip. -- pouce
8:06 AM 6:39 PM
Lune descendante, 0% visible
Pression 30.18 pouce
Visibilité -9999.0 Miles terrestres
Nuages
Point de rosée 48 ° F
Humidité 78%
Précipitations 0.00 pouce
Profondeur de la couche neigeuse Non disponible.
UV Non disponible.
Pollen Non disponible.
Qualité de l'air Non disponible.
Flu Activity Non disponible.
METAR LFLL 231500Z 34016KT CAVOK 12/05 Q1022 NOSIG

More Conditions Fewer Conditions

Pression 30.18 pouce
Visibilité -9999.0 Miles terrestres
Nuages
Point de rosée 48 ° F
Humidité 78%
Précipitations 0.00 pouce
Profondeur de la couche neigeuse Non disponible.
UV Non disponible.
Pollen Non disponible.
Qualité de l'air Non disponible.
Flu Activity Non disponible.
METAR LFLL 231500Z 34016KT CAVOK 12/05 Q1022 NOSIG

More Conditions Fewer Conditions

10-Day Weather Forecast

Almanac

Astronomie

Oct. 23, 2014 Lever Coucher
Temps réel 08:06 CEST 18:39 CEST
Crépuscule civil 07:35 CEST 19:09 CEST
Crépuscule nautique 07:00 CEST 19:44 CEST
Crépuscule astronomique 06:26 CEST 20:19 CEST
Lune 07:28 CEST 18:31 CEST
Durée de lumière visible 11h 34m
Longueur du jour
10h 33m
Tomorrow will be 3m 3s shorter.
Lune descendante, 0% of the Moon is Illuminated
Aujourd'hui
Lune descendante
Oct 23
Nouveau
Oct 30
Premier quartier
Nov 6
Pleine lune
Nov 14
Dernier quartier

Extrêmes aujourd'hui

Country Highs Country Lows

Community

WunderPhotos

Upload Photos

1,764,277 Photos téléchargées !

Nearby

Qualité de l'air

Not available.

Épaisseur de neige

Not available.

Activité sismique

Ville Distance Mag. Time & Date
No recent earthquake activity has been reported nearby.
Minimum magnitude displayed is 2.5.

Températures des eaux côtières

Lieu Température
Aucun rapport de station

Stations météo à proximité